HKNW/WIL METAR and TAF weather

Enter ICAO airport designator
Station Type Date Time Source
HKNW METAR 2019/10/21 19:00 UTC NOAA

HKNW 211900Z 05005KT 9999 FEW022 20/15 Q1019


Station Type Date Time Source
HKNW Decoded METAR 2019/10/21 19:00 UTC NOAA

Nairobi / Wilson, Kenya (HKNW) 01-19S 036-49E 1679M
Oct 21, 2019 - 03:00 PM EDT / 2019.10.21 1900 UTC
Wind: from the NE (050 degrees) at 6 MPH (5 KT):0
Visibility: greater than 7 mile(s):0
Sky conditions: mostly clear
Temperature: 68 F (20 C)
Dew Point: 59 F (15 C)
Relative Humidity: 72%
Pressure (altimeter): 30.09 in. Hg (1019 hPa)
ob: HKNW 211900Z 05005KT 9999 FEW022 20/15 Q1019
cycle: 19

Station Type Date Time Source
HKNW TAF 2019/10/21 18:27 UTC NOAA

TAF HKNW 211700Z 2118/2218 12010KT 9999 SCT024
BECMG 2121/2123 06005KT SCT020
TEMPO 2200/2206 03005KT BKN017
BECMG 2208/2211 12010KT BKN024
BECMG 2215/2218 -SHRA FEW024CB BKN025

Example: see airport list